Latest Weather Observations for Oenpelli Airport

IDD60801

Issued at 10:31 pm CST Tuesday 30 August 2016 (issued every 30 minutes, with the page automatically refreshed every 10 minutes)

About weather observations | Map of weather stations | Latest weather observations for NT | Other Formats
Station Details ID: 014310 Name: OENPELLI AIRPORT Lat: -12.33 Lon: 133.01 Height: 7.5 m
Data from the previous 72 hours. | See also: Recent months at Oenpelli Airport
Date/Time
CST
Temp
°C
App
Temp
°C
Dew
Point
°C
Rel
Hum
%
Delta-T
°C
Wind Press
QNH
hPa
Press
MSL
hPa
Rain since
9am
mm
Dir  Spd
km/h
Gust
km/h
Spd
kts
Gust
kts
30/10:30pm 25.7 21.4 -4.7 13 12.9 NE 9 13 5 7 1014.4 1014.3 0.0
30/10:00pm 26.0 21.7 -4.5 13 13.0 NNE 9 13 5 7 1014.2 1014.1 0.0
30/09:30pm 26.4 22.2 -4.2 13 13.2 NNE 9 11 5 6 1014.1 1014.0 0.0
30/09:00pm 26.9 22.7 -3.8 13 13.4 NNE 9 11 5 6 1013.9 1013.8 0.0
30/08:30pm 27.5 22.2 -3.3 13 13.6 NNE 15 22 8 12 1013.7 1013.6 0.0
30/08:00pm 27.8 23.3 -3.1 13 13.7 NNE 11 19 6 10 1013.3 1013.2 0.0
30/07:30pm 28.4 24.0 -2.6 13 14.0 NNE 11 17 6 9 1012.8 1012.7 0.0
30/07:00pm 29.2 24.5 -2.0 13 14.3 NNE 13 19 7 10 1012.4 1012.3 0.0
30/06:30pm 30.7 25.4 -0.8 13 14.9 NNE 17 26 9 14 1011.9 1011.8 0.0
30/06:00pm 32.5 27.4 0.6 13 15.7 N 17 28 9 15 1011.4 1011.3 0.0
30/05:30pm 34.8 30.7 2.3 13 16.6 NE 13 19 7 10 1011.0 1010.9 0.0
30/05:00pm 35.1 31.4 2.6 13 16.7 E 11 19 6 10 1010.8 1010.7 0.0
30/04:30pm 35.0 31.7 2.5 13 16.7 NE 9 19 5 10 1010.8 1010.7 0.0
30/04:00pm 34.6 31.6 2.2 13 16.5 NE 7 13 4 7 1010.9 1010.8 0.0
30/03:30pm 35.8 32.2 3.1 13 17.1 NE 11 20 6 11 1011.0 1010.9 0.0
30/03:00pm 35.4 32.5 2.8 13 16.9 ENE 7 15 4 8 1011.2 1011.1 0.0
30/02:30pm 34.5 31.1 2.1 13 16.5 ENE 9 20 5 11 1011.7 1011.6 0.0
30/02:00pm 34.2 30.4 1.9 13 16.4 ENE 11 19 6 10 1012.3 1012.2 0.0
30/01:30pm 33.2 29.7 1.1 13 16.0 ENE 9 19 5 10 1012.9 1012.8 0.0
30/01:00pm 33.8 30.4 1.6 13 16.2 NE 9 17 5 9 1013.5 1013.4 0.0
30/12:30pm 32.7 28.4 0.7 13 15.7 ENE 13 24 7 13 1014.3 1014.2 0.0
30/12:00pm 32.8 28.5 0.8 13 15.8 NE 13 22 7 12 1015.0 1014.9 0.0
30/11:30am 31.6 27.1 -0.1 13 15.3 NE 13 20 7 11 1015.6 1015.5 0.0
30/11:00am 31.6 27.5 -0.1 13 15.3 NE 11 20 6 11 1016.2 1016.1 0.0
30/10:30am 30.4 25.4 -1.1 13 14.8 NE 15 24 8 13 1016.6 1016.5 0.0
30/10:00am 29.3 25.3 -1.9 13 14.3 ENE 9 17 5 9 1017.0 1016.9 0.0
30/09:30am 28.4 23.6 -2.6 13 13.9 E 13 19 7 10 1017.1 1017.0 0.0
30/09:00am 28.4 23.2 -2.6 13 13.9 ENE 15 24 8 13 1017.0 1016.9 0.0
30/08:30am 27.6 23.1 -3.3 13 13.6 ENE 11 15 6 8 1016.7 1016.6 0.0
30/08:00am 26.0 22.3 -4.5 13 13.0 E 6 9 3 5 1016.4 1016.3 0.0
30/07:30am 22.4 19.6 -7.3 13 11.6 CALM 0 0 0 0 1016.2 1016.1 0.0
30/07:00am 22.3 19.5 -7.4 13 11.6 CALM 0 0 0 0 1015.8 1015.7 0.0
30/06:30am 21.8 18.9 -7.8 13 11.4 CALM 0 0 0 0 1015.4 1015.3 0.0
30/06:00am 21.1 18.2 -8.4 13 11.1 CALM 0 0 0 0 1014.9 1014.8 0.0
30/05:30am 22.0 19.1 -7.6 13 11.4 CALM 0 0 0 0 1014.5 1014.4 0.0
30/05:00am 22.3 19.1 -7.4 13 11.6 NE 2 6 1 3 1014.2 1014.1 0.0
30/04:30am 23.2 19.7 -6.7 13 11.9 NE 4 6 2 3 1013.9 1013.8 0.0
30/04:00am 22.4 19.6 -7.3 13 11.6 CALM 0 0 0 0 1013.9 1013.8 0.0
30/03:30am 23.9 20.4 -6.2 13 12.2 NNE 4 6 2 3 1013.8 1013.7 0.0
30/03:00am 23.7 20.2 -6.3 13 12.1 NE 4 6 2 3 1013.7 1013.6 0.0
30/02:30am 23.7 19.8 -6.3 13 12.1 NNE 6 7 3 4 1013.7 1013.6 0.0
30/02:00am 23.8 19.9 -6.2 13 12.1 NE 6 7 3 4 1013.8 1013.7 0.0
30/01:30am 23.9 20.0 -6.2 13 12.2 NE 6 9 3 5 1014.0 1013.9 0.0
30/01:00am 23.7 19.6 -6.3 13 12.1 NE 7 9 4 5 1014.1 1014.0 0.0
30/12:30am 23.9 19.8 -6.2 13 12.2 NNE 7 11 4 6 1014.2 1014.1 0.0
30/12:00am 24.3 20.3 -5.8 13 12.3 NE 7 9 4 5 1014.3 1014.2 0.0
 
Date/Time
CST
Temp
°C
App
Temp
°C
Dew
Point
°C
Rel
Hum
%
Delta-T
°C
Wind Press
QNH
hPa
Press
MSL
hPa
Rain since
9am
mm
Dir  Spd
km/h
Gust
km/h
Spd
kts
Gust
kts
29/11:30pm 24.4 20.4 -5.8 13 12.4 NNE 7 9 4 5 1014.3 1014.2 0.0
29/11:00pm 24.6 20.8 -5.6 13 12.5 NNE 6 9 3 5 1014.1 1014.0 0.0
29/10:30pm 25.1 21.3 -5.2 13 12.7 NE 6 7 3 4 1014.0 1013.9 0.0
29/10:00pm 25.0 21.2 -5.3 13 12.6 NNE 6 9 3 5 1013.7 1013.6 0.0
29/09:30pm 25.4 21.7 -5.0 13 12.8 NE 6 9 3 5 1013.5 1013.4 0.0
29/09:00pm 26.2 21.9 -4.4 13 13.1 NE 9 13 5 7 1013.2 1013.1 0.0
29/08:30pm 26.4 22.2 -4.2 13 13.2 NNE 9 17 5 9 1012.7 1012.6 0.0
29/08:00pm 27.2 23.0 -3.6 13 13.5 NNE 9 15 5 8 1012.2 1012.1 0.0
29/07:30pm 28.1 23.6 -2.9 13 13.9 NNE 11 19 6 10 1011.7 1011.6 0.0
29/07:00pm 28.6 24.2 -2.5 13 14.1 NNE 11 15 6 8 1011.3 1011.2 0.0
29/06:30pm 30.0 24.6 -1.4 13 14.6 NNE 17 24 9 13 1010.9 1010.8 0.0
29/06:00pm 31.5 27.0 -0.2 13 15.3 NNE 13 20 7 11 1010.7 1010.6 0.0
29/05:30pm 32.4 27.3 0.5 13 15.6 NNE 17 24 9 13 1010.5 1010.4 0.0
29/05:00pm 32.6 28.2 0.6 13 15.7 NNE 13 20 7 11 1010.6 1010.5 0.0
29/04:30pm 32.8 28.1 0.8 13 15.8 NE 15 20 8 11 1010.5 1010.4 0.0
29/04:00pm 34.0 29.1 1.7 13 16.3 NNE 17 32 9 17 1010.3 1010.2 0.0
29/03:30pm 34.6 31.3 2.2 13 16.6 NE 9 19 5 10 1010.2 1010.1 0.0
29/03:00pm 33.9 29.3 1.6 13 16.3 ENE 15 20 8 11 1010.6 1010.5 0.0
29/02:30pm 34.5 30.8 2.1 13 16.5 NE 11 22 6 12 1011.1 1011.0 0.0
29/02:00pm 34.0 31.0 1.7 13 16.3 NE 7 13 4 7 1011.5 1011.4 0.0
29/01:30pm 34.1 30.7 1.8 13 16.3 NNE 9 15 5 8 1012.1 1012.0 0.0
29/01:00pm 33.2 29.3 1.1 13 16.0 NE 11 24 6 13 1012.7 1012.6 0.0
29/12:30pm 32.7 28.7 0.7 13 15.7 NNE 11 20 6 11 1013.2 1013.1 0.0
29/12:00pm 32.5 28.5 0.6 13 15.6 E 11 20 6 11 1013.7 1013.6 0.0
29/11:30am 31.9 28.2 0.1 13 15.4 NE 9 19 5 10 1014.3 1014.2 0.0
29/11:00am 30.9 27.1 -0.7 13 15.0 ENE 9 20 5 11 1014.9 1014.8 0.0
29/10:30am 30.3 26.4 -1.2 13 14.7 ENE 9 17 5 9 1015.2 1015.1 0.0
29/10:00am 28.9 25.5 -2.3 13 14.2 NE 6 11 3 6 1015.7 1015.6 0.0
29/09:30am 27.7 24.0 -3.2 13 13.7 ENE 7 13 4 7 1016.0 1015.9 0.0
29/09:00am 27.1 24.3 -3.7 13 13.4 E 2 6 1 3 1015.9 1015.8 0.0
29/08:30am 25.0 22.4 -5.3 13 12.6 CALM 0 0 0 0 1015.6 1015.5 0.0
29/08:00am 22.1 19.2 -7.6 13 11.5 CALM 0 0 0 0 1015.4 1015.3 0.0
29/07:30am 19.6 16.6 -9.5 13 10.5 CALM 0 0 0 0 1015.0 1014.9 0.0
29/07:00am 18.6 15.1 -10.3 13 10.2 W 2 4 1 2 1014.6 1014.5 0.0
29/06:30am 18.0 14.9 -10.8 13 10.0 CALM 0 0 0 0 1014.2 1014.1 0.0
29/06:00am 17.5 14.4 -11.2 13 9.8 CALM 0 0 0 0 1013.8 1013.7 0.0
29/05:30am 17.2 13.7 -11.4 13 9.7 SW 2 4 1 2 1013.6 1013.5 0.0
29/05:00am 16.9 13.7 -11.7 13 9.6 CALM 0 2 0 1 1013.0 1012.9 0.0
29/04:30am 16.7 13.5 -11.8 13 9.5 CALM 0 0 0 0 1013.0 1012.9 0.0
29/04:00am 18.7 15.6 -10.2 13 10.2 CALM 0 0 0 0 1013.0 1012.9 0.0
29/03:30am 17.4 13.5 -11.3 13 9.8 E 4 4 2 2 1012.7 1012.6 0.0
29/03:00am 17.1 13.9 -11.5 13 9.7 CALM 0 0 0 0 1012.8 1012.7 0.0
29/02:30am 20.2 16.5 -9.1 13 10.8 ENE 4 6 2 3 1012.9 1012.8 0.0
29/02:00am 20.1 17.1 -9.1 13 10.7 CALM 0 0 0 0 1012.9 1012.8 0.0
29/01:30am 20.5 16.8 -8.8 13 10.9 NE 4 6 2 3 1013.0 1012.9 0.0
29/01:00am 20.8 17.1 -8.6 13 11.0 ENE 4 6 2 3 1013.2 1013.1 0.0
29/12:30am 21.2 17.5 -8.3 13 11.2 ENE 4 6 2 3 1013.4 1013.3 0.0
29/12:00am 22.1 18.5 -7.6 13 11.5 NE 4 6 2 3 1013.6 1013.5 0.0
 
Date/Time
CST
Temp
°C
App
Temp
°C
Dew
Point
°C
Rel
Hum
%
Delta-T
°C
Wind Press
QNH
hPa
Press
MSL
hPa
Rain since
9am
mm
Dir  Spd
km/h
Gust
km/h
Spd
kts
Gust
kts
28/11:30pm 22.3 18.7 -7.4 13 11.6 NE 4 6 2 3 1013.7 1013.6 0.0
28/11:00pm 22.6 19.0 -7.2 13 11.7 NE 4 6 2 3 1013.5 1013.4 0.0
28/10:30pm 23.5 19.4 -6.5 13 12.0 NE 7 9 4 5 1013.3 1013.2 0.0
28/10:00pm 23.8 19.7 -6.2 13 12.1 NE 7 9 4 5 1013.2 1013.1 0.0
28/09:30pm 22.8 19.6 -7.0 13 11.8 NNE 2 4 1 2 1013.0 1012.9 0.0
28/09:00pm 24.3 20.8 -5.8 13 12.3 N 4 6 2 3 1012.7 1012.6 0.0
28/08:30pm 24.0 20.9 -6.1 13 12.2 NE 2 4 1 2 1012.4 1012.3 0.0
28/08:00pm 25.5 22.1 -4.9 13 12.8 NNW 4 7 2 4 1012.2 1012.1 0.0
28/07:30pm 27.7 24.0 -3.2 13 13.7 NNE 7 11 4 6 1011.7 1011.6 0.0
28/07:00pm 29.1 26.1 -2.1 13 14.3 ENE 4 9 2 5 1011.3 1011.2 0.0
28/06:30pm 31.6 28.5 -0.1 13 15.3 N 6 6 3 3 1010.6 1010.5 0.0
28/06:00pm 33.4 31.2 1.3 13 16.0 ENE 2 7 1 4 1010.5 1010.4 0.0
28/05:30pm 33.9 31.8 1.6 13 16.3 SSW 2 4 1 2 1010.5 1010.4 0.0
28/05:00pm 33.8 31.3 1.6 13 16.2 ENE 4 9 2 5 1010.4 1010.3 0.0
28/04:30pm 34.0 31.0 1.7 13 16.3 NE 7 13 4 7 1010.5 1010.4 0.0
28/04:00pm 34.6 30.9 2.2 13 16.5 N 11 17 6 9 1010.4 1010.3 0.0
28/03:30pm 34.4 32.3 2.0 13 16.5 SSE 2 7 1 4 1010.6 1010.5 0.0
28/03:00pm 33.9 31.0 1.6 13 16.3 SE 6 11 3 6 1010.8 1010.7 0.0
28/02:30pm 33.5 30.6 1.3 13 16.1 W 6 15 3 8 1011.3 1011.2 0.0
28/02:00pm 33.7 30.6 1.5 13 16.2 SW 7 17 4 9 1011.9 1011.8 0.0
28/01:30pm 32.9 29.3 0.9 13 15.8 WSW 9 17 5 9 1012.7 1012.6 0.0
28/01:00pm 32.2 29.1 0.3 13 15.5 SSE 6 17 3 9 1013.4 1013.3 0.0
28/12:30pm 32.0 28.9 0.2 13 15.4 ENE 6 13 3 7 1014.0 1013.9 0.0
28/12:00pm 31.4 28.0 -0.3 13 15.2 SE 7 19 4 10 1014.7 1014.6 0.0
28/11:30am 30.7 26.9 -0.8 13 14.9 ESE 9 15 5 8 1015.5 1015.4 0.0
28/11:00am 30.1 25.8 -1.3 13 14.7 SE 11 20 6 11 1016.0 1015.9 0.0
28/10:30am 29.4 25.1 -1.9 13 14.4 E 11 19 6 10 1016.6 1016.5 0.0
28/10:00am 28.6 24.6 -2.5 13 14.1 E 9 15 5 8 1016.9 1016.8 0.0
28/09:30am 26.8 23.0 -3.9 13 13.3 ESE 7 11 4 6 1017.0 1016.9 0.0
28/09:00am 25.5 22.1 -4.9 13 12.8 E 4 7 2 4 1017.1 1017.0 0.0
28/08:30am 22.4 18.8 -7.3 13 11.6 NNW 4 6 2 3 1016.8 1016.7 0.0
28/08:00am 20.5 17.5 -8.8 13 10.9 CALM 0 0 0 0 1016.6 1016.5 0.0
28/07:30am 18.3 15.2 -10.6 13 10.1 CALM 0 2 0 1 1016.4 1016.3 0.0
28/07:00am 16.7 13.5 -11.8 13 9.5 CALM 0 0 0 0 1016.0 1015.9 0.0
28/06:30am 16.6 13.4 -11.9 13 9.5 CALM 0 0 0 0 1015.6 1015.5 0.0
28/06:00am 16.5 13.3 -12.0 13 9.4 CALM 0 0 0 0 1015.2 1015.1 0.0
28/05:30am 18.1 14.6 -10.7 13 10.0 N 2 4 1 2 1014.9 1014.8 0.0
28/05:00am 18.9 15.5 -10.1 13 10.3 NE 2 6 1 3 1014.8 1014.7 0.0
28/04:30am 19.2 15.8 -9.8 13 10.4 NE 2 4 1 2 1014.7 1014.6 0.0
28/04:00am 19.4 16.4 -9.7 13 10.5 CALM 0 6 0 3 1014.8 1014.7 0.0
28/03:30am 20.2 16.5 -9.1 13 10.8 ENE 4 4 2 2 1014.6 1014.5 0.0
28/03:00am 20.8 17.1 -8.6 13 11.0 NNE 4 6 2 3 1014.6 1014.5 0.0
28/02:30am 20.0 16.2 -9.2 13 10.7 ESE 4 4 2 2 1014.7 1014.6 0.0
28/02:00am 22.5 19.3 -7.3 13 11.7 N 2 4 1 2 1014.9 1014.8 0.0
28/01:30am 23.0 19.4 -6.9 13 11.8 NE 4 6 2 3 1015.2 1015.1 0.0
28/01:00am 23.2 19.3 -6.7 13 11.9 ENE 6 7 3 4 1015.4 1015.3 0.0
28/12:30am 22.6 19.0 -7.2 13 11.7 ENE 4 4 2 2 1015.6 1015.5 0.0
28/12:00am 22.6 18.6 -7.2 13 11.7 ENE 6 6 3 3 1015.6 1015.5 0.0
 
Date/Time
CST
Temp
°C
App
Temp
°C
Dew
Point
°C
Rel
Hum
%
Delta-T
°C
Wind Press
QNH
hPa
Press
MSL
hPa
Rain since
9am
mm
Dir  Spd
km/h
Gust
km/h
Spd
kts
Gust
kts
27/11:30pm 22.9 19.0 -6.9 13 11.8 NE 6 7 3 4 1015.6 1015.5 0.0
27/11:00pm 23.0 19.4 -6.9 13 11.8 NNE 4 6 2 3 1015.5 1015.4 0.0

Other Formats:

Comma delimited format used in spreadsheet applications
http://www.bom.gov.au/fwo/IDD60801/IDD60801.94110.axf

JavaScript Object Notation format (JSON) in row-major order
http://www.bom.gov.au/fwo/IDD60801/IDD60801.94110.json